Hauptseite
METAR-TAF:

METAR-TAF

Flughäfen :

Flughafen Vannes

Vannes, Frankreich

Breite: 47-43-19N, Länge: 2-43-41W, Höhe: 130 m

Beobachtung

Neuester Wetterbericht von vor 15 Minuten, um 12:30 UTC
Wind 11 kt aus West, variierte zwischen Süd/Südwest und West/Nordwest
Temperatur 14°C
Luftfeuchtigkeit 72%
Luftdruck 1015 hPa
Sichtweite 10 km oder mehr
Aufgelockert bewölkt in der Höhe von 1900 ft
Durchbrochene Bewölkung in der Höhe von 2400 ft
Durchbrochene Bewölkung in der Höhe von 2900 ft

METAR: LFRV 261230Z AUTO 26011KT 210V300 9999 SCT019 BKN024 BKN029 14/09 Q1015

Zeit: 14:45 (12:45 UTC)


TAF: fehlend

Wetterbeobachtungen und Prognosen von mehr als 4000 Flughäfen (METAR und TAF Bericht).

Die verfügbaren Stationen werden durch gelbe und rote Markierungen auf der Karte dargestellt.

Führen Sie die Maus auf sie, um den Namen der Station zu sehen.

Darauf klicken, um die Beobachtung von Wetterbeobachtungen und Prognosen zu sehen.

Um die Karte zu ändern : klicken Sie auf den grünen Tasten mit einem schwarzen Kreuz Zum Vergrößern, auf den grünen Button mit einem Gedankenstrich zu verkleinern, oder auf die grünen Pfeile für benachbarte Karten.


METAR-TAF: